Arlington, Vermont
Current Conditions -  °F | °C
As of 6:54 PM on Monday 20 Oct 2014 (Local Time) from KDDH Reporting Station
Overcast Overcast  
Wind Chill: 49°   Ceiling: 8500
Heat Index: 49°   Visibility: 10mi
Dew Point: 34°   Wind: 3mph
Humidity: 56%   Direction: 160°SSE
Pressure: 29.94"   Gusts: NA
Location:  43.07°N, 73.15°W
Report Text: KDDH 202254Z AUTO 16003KT 10SM BKN085 OVC100 09/01 A2994 RMK AO2 SLP144 T00940011
Loading
Personal Weather Stations






























Interactive Weather Map
Tropical Storm Tracking
New forecast layout! Learn more

10-Day Weather Forecast

Advertisements
Track Severe Weather on mobile